createdAt,value
2023-05-05T05:20:08.503Z,26.63
2023-05-05T05:22:44.472Z,26.00
2023-05-05T05:25:19.873Z,25.20
2023-05-05T05:28:05.755Z,24.98
2023-05-05T05:30:40.575Z,24.13
2023-05-05T05:33:17.987Z,23.15
2023-05-05T05:35:58.231Z,22.40
2023-05-05T05:38:34.971Z,20.85
2023-05-05T05:41:16.313Z,23.42
2023-05-05T05:43:49.229Z,23.08
2023-05-05T05:46:27.406Z,21.75
2023-05-05T05:48:59.650Z,21.95
2023-05-05T05:51:31.912Z,21.88
2023-05-05T05:54:03.549Z,21.75
2023-05-05T05:56:31.530Z,22.00
2023-05-05T05:59:04.926Z,22.75
2023-05-05T06:01:42.845Z,21.70
2023-05-05T06:04:18.175Z,20.85
2023-05-05T06:06:53.569Z,19.10
2023-05-05T06:09:33.735Z,21.38
2023-05-05T06:12:09.526Z,22.02
2023-05-05T06:14:49.800Z,21.88
2023-05-05T06:17:24.200Z,21.98
2023-05-05T06:19:56.163Z,21.77
2023-05-05T06:22:32.165Z,23.17
2023-05-05T06:25:01.375Z,21.05
2023-05-05T06:27:31.259Z,21.48
2023-05-05T06:30:09.392Z,22.23
2023-05-05T06:32:47.806Z,22.58
2023-05-05T06:35:28.311Z,21.75
2023-05-05T06:37:57.703Z,19.73
2023-05-05T06:40:27.355Z,21.58
2023-05-05T06:42:54.412Z,21.63
2023-05-05T06:47:53.847Z,20.92
2023-05-05T06:50:20.794Z,20.60
2023-05-05T06:52:47.974Z,20.60
2023-05-05T06:55:14.782Z,21.75
2023-05-05T06:57:41.981Z,21.48
2023-05-05T07:00:11.504Z,21.77
2023-05-05T07:02:38.844Z,19.65
2023-05-05T07:05:06.004Z,21.38
2023-05-05T07:07:32.908Z,20.88
2023-05-05T07:09:59.698Z,21.80
2023-05-05T07:12:27.512Z,20.95
2023-05-05T07:14:54.243Z,20.80
2023-05-05T07:17:21.511Z,18.77
2023-05-05T07:19:48.880Z,19.38
2023-05-05T07:22:15.680Z,20.85
2023-05-05T07:24:42.386Z,18.95
2023-05-05T07:27:09.901Z,19.15
2023-05-05T07:29:36.642Z,17.90
2023-05-05T07:32:03.520Z,18.33
2023-05-05T07:34:32.756Z,18.40
2023-05-05T07:36:59.863Z,18.80
2023-05-05T07:39:26.685Z,18.38
2023-05-05T07:41:53.608Z,17.63
2023-05-05T07:44:26.183Z,18.10
2023-05-05T07:46:57.244Z,16.98
2023-05-05T07:49:27.492Z,17.08
2023-05-05T07:52:01.915Z,17.00
2023-05-05T07:54:37.404Z,15.35
2023-05-05T07:57:09.730Z,14.93
2023-05-05T07:59:45.861Z,16.52
2023-05-05T08:02:16.605Z,14.20
2023-05-05T08:04:46.521Z,13.85
2023-05-05T08:07:20.620Z,12.65
2023-05-05T08:09:50.117Z,13.45
2023-05-05T08:12:31.265Z,14.30
2023-05-05T08:15:07.242Z,13.63
2023-05-05T08:17:59.320Z,12.75
2023-05-05T08:20:30.940Z,13.70
2023-05-05T08:23:02.633Z,14.13
2023-05-05T08:25:38.559Z,11.10
2023-05-05T08:28:08.600Z,13.30
2023-05-05T08:30:37.469Z,14.23
2023-05-05T08:35:53.305Z,15.75
2023-05-05T08:38:32.097Z,13.53
2023-05-05T08:41:09.631Z,13.73
2023-05-05T08:43:36.546Z,12.38
2023-05-05T08:46:16.363Z,11.85
2023-05-05T08:48:48.855Z,12.20
2023-05-05T08:54:01.974Z,11.77
2023-05-05T08:56:40.471Z,6.93
2023-05-05T08:59:14.364Z,5.97
2023-05-05T09:02:01.736Z,6.60
2023-05-05T09:04:34.081Z,6.03
2023-05-05T09:07:10.914Z,5.05
2023-05-05T09:09:53.954Z,7.95
2023-05-05T09:12:24.690Z,8.02
2023-05-05T09:14:59.221Z,3.00
2023-05-05T09:17:32.458Z,2.47
2023-05-05T09:20:09.593Z,2.75
2023-05-05T09:22:54.503Z,4.78
2023-05-05T09:25:23.236Z,7.00
2023-05-05T09:28:03.343Z,5.70
2023-05-05T09:30:43.441Z,5.47
2023-05-05T09:33:13.636Z,6.47
2023-05-05T09:35:51.587Z,5.25
2023-05-05T09:38:26.408Z,5.18
2023-05-05T09:40:59.230Z,6.07
2023-05-05T09:43:31.556Z,6.13
2023-05-05T09:46:10.489Z,5.95
2023-05-05T09:48:46.854Z,5.60
2023-05-05T09:51:19.472Z,5.05
2023-05-05T09:53:52.110Z,5.43
2023-05-05T09:56:26.619Z,5.53
2023-05-05T09:59:12.046Z,5.93
2023-05-05T10:01:47.866Z,7.00
2023-05-05T10:04:27.205Z,5.60
2023-05-05T10:07:05.340Z,6.25
2023-05-05T10:09:49.343Z,5.60
2023-05-05T10:12:24.822Z,5.60
2023-05-05T10:14:58.474Z,6.38
2023-05-05T10:17:26.490Z,5.57
2023-05-05T10:19:59.981Z,5.75
2023-05-05T10:22:38.887Z,7.03
2023-05-05T10:25:17.753Z,6.60
2023-05-05T10:27:59.302Z,6.97
2023-05-05T10:30:31.926Z,6.47
2023-05-05T10:33:18.183Z,5.50
2023-05-05T10:35:54.368Z,7.22
2023-05-05T10:38:26.850Z,7.97
2023-05-05T10:41:01.117Z,10.13
2023-05-05T10:43:29.660Z,10.90
2023-05-05T10:46:04.011Z,11.10
2023-05-05T10:48:40.405Z,10.65
2023-05-05T10:51:18.852Z,10.85
2023-05-05T10:53:54.253Z,10.82
2023-05-05T10:56:42.534Z,11.00
2023-05-05T10:59:37.184Z,10.25
2023-05-05T11:02:20.640Z,9.30
2023-05-05T11:07:15.125Z,9.88
2023-05-05T11:10:14.930Z,10.73
2023-05-05T11:13:02.920Z,10.32
2023-05-05T11:15:30.096Z,9.57
2023-05-05T11:18:01.960Z,9.80
2023-05-05T11:20:36.256Z,9.48
2023-05-05T11:25:40.733Z,9.95
2023-05-05T11:28:08.827Z,9.02
2023-05-05T11:30:36.729Z,9.95
2023-05-05T11:33:22.293Z,10.85
2023-05-05T11:35:59.139Z,9.98
2023-05-05T11:38:47.257Z,10.10
2023-05-05T11:41:17.369Z,9.07
2023-05-05T11:43:44.195Z,10.20
2023-05-05T11:46:14.761Z,10.95
2023-05-05T11:48:48.330Z,9.05
2023-05-05T11:51:16.347Z,10.73
2023-05-05T11:57:15.864Z,12.35
2023-05-05T12:02:59.789Z,8.95
2023-05-05T12:05:26.672Z,9.93
2023-05-05T12:08:01.874Z,9.38
2023-05-05T12:10:35.644Z,9.18
2023-05-05T12:13:04.732Z,8.77
2023-05-05T12:15:32.417Z,9.50
2023-05-05T12:18:28.776Z,11.55
2023-05-05T12:22:27.968Z,10.45
2023-05-05T12:24:55.528Z,10.82
2023-05-05T12:28:28.107Z,11.50
2023-05-05T12:32:25.778Z,9.02
2023-05-05T12:34:57.636Z,10.75
2023-05-05T12:46:59.677Z,12.13
2023-05-05T12:49:31.562Z,14.82
2023-05-05T12:51:59.199Z,15.45
2023-05-05T12:58:02.134Z,10.73
2023-05-05T13:00:32.875Z,10.35
2023-05-05T13:03:06.263Z,10.63
2023-05-05T13:05:38.925Z,10.32
2023-05-05T13:08:11.899Z,9.95
2023-05-05T13:10:41.511Z,9.25
2023-05-05T13:13:08.863Z,9.82
2023-05-05T13:15:36.600Z,8.40
2023-05-05T13:18:03.454Z,9.00
2023-05-05T13:20:30.422Z,8.27
2023-05-05T13:22:57.379Z,9.23
2023-05-05T13:25:24.356Z,9.80
2023-05-05T13:27:51.128Z,9.73
2023-05-05T13:30:18.055Z,10.07
2023-05-05T13:32:47.536Z,11.00
2023-05-05T13:35:16.573Z,8.82
2023-05-05T13:37:44.350Z,10.20
2023-05-05T13:40:11.291Z,15.60
2023-05-05T13:42:38.115Z,9.68
2023-05-05T13:45:05.671Z,11.18
2023-05-05T13:47:32.981Z,11.85
2023-05-05T13:49:59.883Z,10.20
2023-05-05T13:52:27.585Z,9.73
2023-05-05T13:54:55.463Z,10.35
2023-05-05T13:57:22.576Z,11.88
2023-05-05T13:59:49.823Z,10.07
2023-05-05T14:02:16.633Z,8.48
2023-05-05T14:04:43.441Z,9.57
2023-05-05T14:07:10.334Z,9.30
2023-05-05T14:09:38.485Z,8.75
2023-05-05T14:12:06.383Z,8.57
2023-05-05T14:14:34.540Z,9.05
2023-05-05T14:17:01.386Z,9.15
2023-05-05T14:19:28.060Z,9.18
2023-05-05T14:21:54.823Z,8.23
2023-05-05T14:24:21.584Z,7.47
2023-05-05T14:26:49.190Z,9.07
2023-05-05T14:29:15.966Z,8.98
2023-05-05T14:31:42.721Z,10.45
2023-05-05T14:34:09.852Z,8.40
2023-05-05T14:36:37.125Z,9.27
2023-05-05T14:39:04.007Z,9.35
2023-05-05T14:41:30.909Z,7.78
2023-05-05T14:43:57.745Z,8.15
2023-05-05T14:46:25.083Z,10.00
2023-05-05T14:48:52.300Z,8.95
2023-05-05T14:51:19.074Z,9.13
2023-05-05T14:53:45.829Z,9.48
2023-05-05T14:56:12.843Z,9.75
2023-05-05T14:58:39.919Z,9.43
2023-05-05T15:01:06.988Z,10.18
2023-05-05T15:03:34.444Z,13.93
2023-05-05T15:06:02.189Z,13.23
2023-05-05T15:08:29.131Z,15.57
2023-05-05T15:10:56.086Z,10.93
2023-05-05T15:13:22.942Z,11.18
2023-05-05T15:15:50.072Z,10.10
2023-05-05T15:18:17.351Z,10.75
2023-05-05T15:20:44.376Z,10.50
2023-05-05T15:23:11.235Z,10.00
2023-05-05T15:25:37.918Z,10.45
2023-05-05T15:28:04.929Z,9.93
2023-05-05T15:30:32.158Z,13.82
2023-05-05T15:32:59.431Z,12.77
2023-05-05T15:35:26.560Z,11.48
2023-05-05T15:37:54.886Z,10.60
2023-05-05T15:40:21.814Z,20.80
2023-05-05T15:42:49.886Z,12.90
2023-05-05T15:45:17.429Z,12.52
2023-05-05T15:47:44.789Z,11.48
2023-05-05T15:50:11.889Z,12.82
2023-05-05T15:52:38.687Z,11.88
2023-05-05T15:55:06.874Z,12.40
2023-05-05T15:57:34.330Z,15.57
2023-05-05T16:00:01.769Z,16.13
2023-05-05T16:02:28.864Z,13.35
2023-05-05T16:04:55.855Z,10.00
2023-05-05T16:07:22.600Z,12.93
2023-05-05T16:09:49.591Z,15.15
2023-05-05T16:12:16.512Z,11.48
2023-05-05T16:14:43.236Z,11.50
2023-05-05T16:17:10.330Z,12.75
2023-05-05T16:19:37.165Z,10.25
2023-05-05T16:22:03.928Z,17.88
2023-05-05T16:24:30.712Z,16.52
2023-05-05T16:26:57.491Z,12.98
2023-05-05T16:29:24.299Z,13.20
2023-05-05T16:31:50.967Z,12.88
2023-05-05T16:34:18.128Z,11.40
2023-05-05T16:36:44.933Z,13.30
2023-05-05T16:39:11.953Z,11.73
2023-05-05T16:41:38.756Z,13.85
2023-05-05T16:44:05.602Z,11.68
2023-05-05T16:46:35.632Z,15.40
2023-05-05T16:49:02.964Z,17.15
2023-05-05T16:51:29.677Z,14.05
2023-05-05T16:53:56.392Z,12.07
2023-05-05T16:56:23.412Z,15.38
2023-05-05T16:58:50.493Z,24.58
2023-05-05T17:01:17.385Z,15.07
2023-05-05T17:03:44.182Z,14.70
2023-05-05T17:06:12.555Z,14.38
2023-05-05T17:08:39.464Z,15.35
2023-05-05T17:11:11.478Z,16.77
2023-05-05T17:13:39.015Z,13.80
2023-05-05T17:16:05.798Z,12.50
2023-05-05T17:18:32.645Z,13.75
2023-05-05T17:20:59.462Z,13.25
2023-05-05T17:23:26.387Z,12.52
2023-05-05T17:25:53.103Z,12.90
2023-05-05T17:28:19.801Z,16.60
2023-05-05T17:30:46.982Z,12.43
2023-05-05T17:33:16.802Z,15.25
2023-05-05T17:35:44.018Z,10.90
2023-05-05T17:38:11.485Z,14.00
2023-05-05T17:40:38.342Z,12.73
2023-05-05T17:43:05.149Z,13.90
2023-05-05T17:45:32.359Z,12.82
2023-05-05T17:47:59.439Z,12.48
2023-05-05T17:50:26.291Z,12.85
2023-05-05T17:52:52.972Z,13.50
2023-05-05T17:55:19.805Z,25.10
2023-05-05T17:57:47.585Z,11.13
2023-05-05T18:00:14.981Z,12.82
2023-05-05T18:02:42.161Z,9.93
2023-05-05T18:05:09.421Z,11.88
2023-05-05T18:07:38.623Z,10.82
2023-05-05T18:10:10.571Z,11.68
2023-05-05T18:12:37.551Z,11.07
2023-05-05T18:15:04.881Z,11.40
2023-05-05T18:17:31.642Z,13.73
2023-05-05T18:19:58.457Z,14.65
2023-05-05T18:22:25.388Z,12.68
2023-05-05T18:24:52.296Z,11.80
2023-05-05T18:27:19.036Z,12.60
2023-05-05T18:29:57.509Z,11.02
2023-05-05T18:32:26.657Z,11.27
2023-05-05T18:34:53.862Z,10.30
2023-05-05T18:37:20.958Z,11.60
2023-05-05T18:39:49.936Z,11.18
2023-05-05T18:42:16.671Z,11.23
2023-05-05T18:44:43.389Z,12.45
2023-05-05T18:47:10.507Z,11.65
2023-05-05T18:49:37.950Z,10.50
2023-05-05T18:52:23.876Z,10.25
2023-05-05T18:57:20.107Z,11.40
2023-05-05T18:59:47.588Z,12.68
2023-05-05T19:02:20.590Z,11.07
2023-05-05T19:04:47.671Z,9.77
2023-05-05T19:07:27.575Z,10.35
2023-05-05T19:10:01.197Z,11.30
2023-05-05T19:13:16.857Z,10.93
2023-05-05T19:16:55.169Z,16.92
2023-05-05T20:00:43.032Z,13.95
2023-05-05T20:03:17.397Z,13.02
2023-05-05T20:06:20.533Z,13.52
2023-05-05T20:08:55.518Z,13.43
2023-05-05T20:11:26.105Z,13.00
2023-05-05T20:13:57.357Z,13.50
2023-05-05T20:16:26.458Z,14.18
2023-05-05T20:18:53.655Z,14.77
2023-05-05T20:21:34.293Z,15.20
2023-05-05T20:24:29.167Z,15.30
2023-05-05T20:26:59.030Z,16.75
2023-05-05T20:29:26.305Z,15.48
2023-05-05T20:31:56.712Z,17.33
2023-05-05T20:34:25.473Z,16.50
2023-05-05T20:36:58.025Z,16.33
2023-05-05T20:39:34.471Z,17.03
2023-05-05T20:42:14.616Z,15.15
2023-05-05T20:44:45.008Z,16.55
2023-05-05T20:49:48.457Z,15.13
2023-05-05T20:52:29.668Z,16.30
2023-05-05T20:54:59.900Z,22.25
2023-05-05T20:57:27.709Z,22.55
2023-05-05T20:59:57.782Z,16.33
2023-05-05T21:02:25.583Z,17.63
2023-05-05T21:05:02.447Z,17.60
2023-05-05T21:07:36.374Z,17.30
2023-05-05T21:10:06.097Z,17.75
2023-05-05T21:12:49.550Z,27.40
2023-05-05T21:15:16.869Z,18.30
2023-05-05T21:17:50.828Z,19.80
2023-05-05T21:20:22.093Z,18.73
2023-05-05T21:22:58.389Z,19.10
2023-05-05T21:25:29.394Z,21.38
2023-05-05T21:27:56.762Z,22.35
2023-05-05T21:30:27.088Z,20.38
2023-05-05T21:32:57.148Z,20.70
2023-05-05T21:35:27.060Z,23.85
2023-05-05T21:38:00.251Z,22.23
2023-05-05T21:40:30.901Z,27.15
2023-05-05T21:42:58.095Z,22.67
2023-05-05T21:45:27.077Z,22.75
2023-05-05T21:48:02.819Z,23.25
2023-05-05T21:50:31.692Z,22.95
2023-05-05T21:53:01.741Z,27.00
2023-05-05T21:55:43.344Z,31.85
2023-05-05T21:58:10.756Z,25.33
2023-05-05T22:00:50.639Z,26.17
2023-05-05T22:03:23.644Z,26.48
2023-05-05T22:05:51.124Z,24.95
2023-05-05T22:08:19.408Z,25.75
2023-05-05T22:10:47.588Z,24.42
2023-05-05T22:13:14.854Z,25.33
2023-05-05T22:15:46.813Z,24.88
2023-05-05T22:18:15.357Z,24.50
2023-05-05T22:20:42.489Z,24.75
2023-05-05T22:23:09.512Z,25.08
2023-05-05T22:25:36.533Z,24.48
2023-05-05T22:28:06.483Z,24.30
2023-05-05T22:31:15.523Z,25.25
2023-05-05T22:33:46.376Z,26.15
2023-05-05T22:36:16.170Z,26.73
2023-05-05T22:38:43.420Z,25.77
2023-05-05T22:41:13.759Z,26.15
2023-05-05T22:43:43.705Z,25.77
2023-05-05T22:46:15.221Z,24.67
2023-05-05T22:48:43.447Z,26.30
2023-05-05T22:51:14.295Z,25.67
2023-05-05T22:53:42.450Z,25.85
2023-05-05T22:56:09.565Z,26.55
2023-05-05T22:58:40.184Z,26.35
2023-05-05T23:01:08.178Z,28.25
2023-05-05T23:03:35.686Z,27.80
2023-05-05T23:06:03.509Z,25.88
2023-05-05T23:08:30.467Z,27.33
2023-05-05T23:10:57.427Z,28.20
2023-05-05T23:13:25.392Z,27.50
2023-05-05T23:15:52.898Z,27.50
2023-05-05T23:18:20.014Z,29.02
2023-05-05T23:20:47.261Z,28.25
2023-05-05T23:23:14.920Z,28.90
2023-05-05T23:25:42.046Z,29.33
2023-05-05T23:28:10.066Z,29.48
2023-05-05T23:30:39.796Z,30.58
2023-05-05T23:33:07.171Z,30.65
2023-05-05T23:35:35.350Z,29.77
2023-05-05T23:38:02.594Z,29.80
2023-05-05T23:40:29.985Z,31.17
2023-05-05T23:42:57.007Z,32.58
2023-05-05T23:45:24.183Z,35.72
2023-05-05T23:47:52.604Z,33.88
2023-05-05T23:50:22.305Z,33.92
2023-05-05T23:52:49.274Z,34.08
2023-05-05T23:55:17.598Z,33.53
2023-05-05T23:57:48.152Z,32.05
